HCR weather

Transener S.A. Heliport
Barreales, Mendoza Province, Argentina

Public forecast

Using degrees Celsius for public forecast. Weather courtesy of forecast.io.

Closest aviation weather report (METAR) to Transener S.A. Heliport

Closest report is El Plumerillo Airport, 19.2 nm (35.6 km) NNW. Retrieved 2020/08/05 15:00 UTC (58 minutes ago):

SAME 051500Z 36003KT CAVOK 16/05 Q1015

Closest aviation forecast (TAF) to Transener S.A. Heliport

Closest forecast is El Plumerillo Airport, 19.2 nm (35.6 km) NNW. Retrieved 2020/08/05 12:00 UTC (4 hours ago):

TAF SAME 051100Z 0512/0612 05005KT CAVOK TX24/0520Z TN04/0611Z BECMG 0518/0520 29010KT BECMG 0520/0522 18010KT